createdAt,value
2022-10-17T00:00:05.584Z,16.7
2022-10-17T00:02:09.691Z,14.9
2022-10-17T00:04:13.749Z,15.8
2022-10-17T00:06:17.823Z,17.1
2022-10-17T00:08:21.910Z,21.9
2022-10-17T00:10:26.025Z,25.9
2022-10-17T00:12:33.100Z,32
2022-10-17T00:14:37.175Z,38.4
2022-10-17T00:17:44.798Z,48.3
2022-10-17T00:19:48.893Z,51.1
2022-10-17T00:21:52.980Z,55.8
2022-10-17T00:23:57.047Z,62.7
2022-10-17T00:26:04.161Z,73.1
2022-10-17T00:28:08.237Z,71.8
2022-10-17T00:30:12.330Z,71.6
2022-10-17T00:32:16.413Z,67.1
2022-10-17T00:34:20.469Z,66.7
2022-10-17T00:36:24.561Z,70
2022-10-17T00:38:28.623Z,66.5
2022-10-17T00:40:35.731Z,75.7
2022-10-17T00:44:43.869Z,79.4
2022-10-17T00:46:47.951Z,82.8
2022-10-17T00:50:56.101Z,87
2022-10-17T00:59:15.397Z,125.2
2022-10-17T01:01:19.481Z,133.5
2022-10-17T01:03:23.526Z,139.5
2022-10-17T01:05:27.602Z,149
2022-10-17T01:07:34.705Z,159.2
2022-10-17T01:09:38.761Z,176.5
2022-10-17T01:11:42.838Z,177.5
2022-10-17T01:13:46.925Z,181.3
2022-10-17T01:16:05.366Z,189.1
2022-10-17T01:20:13.588Z,185.6
2022-10-17T01:22:20.615Z,197
2022-10-17T01:24:24.682Z,202.1
2022-10-17T01:26:28.786Z,203.2
2022-10-17T01:28:32.904Z,208
2022-10-17T01:32:41.009Z,215.9
2022-10-17T01:36:52.153Z,225.5
2022-10-17T01:41:00.328Z,223
2022-10-17T01:45:10.058Z,217.5
2022-10-17T01:47:14.097Z,221.3
2022-10-17T01:51:25.274Z,232.3
2022-10-17T01:53:29.346Z,233.9
2022-10-17T01:55:33.436Z,235.3
2022-10-17T01:59:41.596Z,231.7
2022-10-17T02:01:45.795Z,235.7
2022-10-17T02:03:49.740Z,221.9
2022-10-17T02:05:56.848Z,228.1
2022-10-17T02:08:00.928Z,231
2022-10-17T02:11:08.560Z,227.7
2022-10-17T02:13:12.633Z,220.3
2022-10-17T02:15:16.721Z,216.9
2022-10-17T02:17:20.798Z,216.9
2022-10-17T02:19:27.899Z,229.4
2022-10-17T02:21:31.973Z,237.1
2022-10-17T02:23:36.052Z,228.1
2022-10-17T02:25:40.128Z,225
2022-10-17T02:27:44.185Z,235.4
2022-10-17T02:29:48.289Z,240.1
2022-10-17T02:31:52.381Z,241.5
2022-10-17T02:33:59.466Z,246.1
2022-10-17T02:36:03.539Z,245.1
2022-10-17T02:38:07.611Z,244
2022-10-17T02:40:11.711Z,242.4
2022-10-17T02:44:19.858Z,240.9
2022-10-17T02:46:23.915Z,240.5
2022-10-17T02:48:31.014Z,246.7
2022-10-17T02:50:35.098Z,238
2022-10-17T02:52:39.185Z,240.4
2022-10-17T02:54:43.263Z,239.5
2022-10-17T02:56:47.329Z,239.1
2022-10-17T02:58:51.430Z,240.7
2022-10-17T03:00:55.522Z,244.6
2022-10-17T03:03:02.582Z,251.2
2022-10-17T03:05:06.673Z,252
2022-10-17T03:07:10.766Z,259.6
2022-10-17T03:08:14.291Z,266.4
2022-10-17T03:10:18.367Z,275.8
2022-10-17T03:12:22.451Z,276.8
2022-10-17T03:14:26.535Z,276.9
2022-10-17T03:16:33.638Z,284.9
2022-10-17T03:18:37.723Z,282.1
2022-10-17T03:20:41.796Z,283.3
2022-10-17T03:22:45.880Z,292.9
2022-10-17T03:24:49.977Z,291.5
2022-10-17T03:26:54.066Z,287
2022-10-17T03:28:58.185Z,295.2
2022-10-17T03:31:05.233Z,296.7
2022-10-17T03:33:09.319Z,295
2022-10-17T03:35:14.892Z,297.5
2022-10-17T03:37:17.470Z,297.1
2022-10-17T03:39:21.558Z,300.7
2022-10-17T03:41:25.659Z,305.6
2022-10-17T03:43:29.744Z,298.4
2022-10-17T03:45:36.841Z,298.8
2022-10-17T03:47:40.912Z,289.7
2022-10-17T03:49:45.014Z,285.8
2022-10-17T03:51:49.108Z,289.5
2022-10-17T03:53:53.191Z,288.9
2022-10-17T03:55:57.285Z,285.2
2022-10-17T03:58:01.394Z,285.8
2022-10-17T04:00:08.485Z,292.3
2022-10-17T04:02:12.584Z,296.9
2022-10-17T04:04:16.678Z,291.9
2022-10-17T04:09:28.439Z,296.6
2022-10-17T04:11:32.500Z,288.6
2022-10-17T04:13:39.594Z,296.7
2022-10-17T04:15:43.698Z,290.4
2022-10-17T04:17:48.642Z,300.7
2022-10-17T04:19:51.906Z,300.7
2022-10-17T04:21:55.949Z,303
2022-10-17T04:24:00.104Z,296
2022-10-17T04:26:04.145Z,304.9
2022-10-17T04:28:11.283Z,302.3
2022-10-17T04:32:19.431Z,296.3
2022-10-17T04:34:23.526Z,296.3
2022-10-17T04:36:27.629Z,291.2
2022-10-17T04:38:31.726Z,290.6
2022-10-17T04:40:35.834Z,287.7
2022-10-17T04:42:42.924Z,299.6
2022-10-17T04:44:47.017Z,291.1
2022-10-17T04:46:51.138Z,286.1
2022-10-17T04:48:55.241Z,280.2
2022-10-17T04:50:59.322Z,275.9
2022-10-17T04:53:03.436Z,271.7
2022-10-17T04:55:07.526Z,272.3
2022-10-17T04:57:14.629Z,279.5
2022-10-17T04:59:18.704Z,292.4
2022-10-17T05:01:22.878Z,286.6
2022-10-17T05:03:47.462Z,277.4
2022-10-17T05:05:51.491Z,281.6
2022-10-17T05:07:55.611Z,289.3
2022-10-17T05:10:02.709Z,301.2
2022-10-17T05:14:10.864Z,299.1
2022-10-17T05:18:19.084Z,330.5
2022-10-17T05:20:23.148Z,331.6
2022-10-17T05:22:27.535Z,330.5
2022-10-17T05:26:38.444Z,329.8
2022-10-17T05:28:42.617Z,332.8
2022-10-17T05:30:46.651Z,335.3
2022-10-17T05:32:50.757Z,327
2022-10-17T05:34:54.839Z,330.3
2022-10-17T05:36:58.944Z,331
2022-10-17T05:39:06.048Z,333.5
2022-10-17T05:41:10.144Z,335
2022-10-17T05:45:18.351Z,332.2
2022-10-17T05:47:22.449Z,330.5
2022-10-17T05:51:30.698Z,343
2022-10-17T05:53:37.765Z,336.7
2022-10-17T05:55:41.868Z,335.3
2022-10-17T05:57:45.953Z,330.6
2022-10-17T05:58:51.590Z,334.1
2022-10-17T06:05:01.802Z,16.1
2022-10-17T06:07:08.903Z,23
2022-10-17T06:09:13.021Z,15.4
2022-10-17T06:11:17.125Z,26.9
2022-10-17T06:13:21.233Z,18.4
2022-10-17T06:15:25.348Z,24.6
2022-10-17T06:17:29.429Z,17.6
2022-10-17T06:25:48.857Z,15.1
2022-10-17T06:32:01.145Z,21.3
2022-10-17T06:36:12.362Z,21.7
2022-10-17T06:38:16.479Z,17.7
2022-10-17T06:40:20.597Z,21.3
2022-10-17T06:42:24.698Z,23.3
2022-10-17T06:44:28.788Z,40.8
2022-10-17T06:46:32.887Z,23.3
2022-10-17T06:48:37.020Z,17.7
2022-10-17T06:50:44.116Z,30.6
2022-10-17T06:52:48.229Z,22.1
2022-10-17T06:54:52.352Z,28.6
2022-10-17T07:02:08.206Z,32.8
2022-10-17T07:04:15.319Z,22.5
2022-10-17T07:06:19.442Z,31.3
2022-10-17T07:08:23.526Z,30.4
2022-10-17T07:10:27.645Z,29.4
2022-10-17T07:12:31.731Z,32.9
2022-10-17T07:14:35.860Z,24.8
2022-10-17T07:16:39.978Z,21.5
2022-10-17T07:18:47.093Z,29.2
2022-10-17T07:20:51.197Z,27.7
2022-10-17T07:22:55.308Z,28.4
2022-10-17T07:24:59.413Z,33.3
2022-10-17T07:27:03.523Z,80.8
2022-10-17T07:29:07.754Z,35.5
2022-10-17T07:31:11.762Z,26.3
2022-10-17T07:33:18.893Z,23.9
2022-10-17T07:35:23.003Z,26.8
2022-10-17T07:37:27.386Z,28.5
2022-10-17T07:39:31.209Z,29.4
2022-10-17T07:41:35.315Z,22.8
2022-10-17T07:43:40.997Z,21.8
2022-10-17T07:52:00.416Z,26.7
2022-10-17T07:53:03.973Z,28.8
2022-10-17T07:55:08.110Z,28.4
2022-10-17T07:57:12.212Z,19.3
2022-10-17T07:59:16.341Z,22.1
2022-10-17T08:01:23.475Z,25.1
2022-10-17T08:05:31.691Z,52.8
2022-10-17T08:07:35.816Z,40.1
2022-10-17T08:09:39.942Z,27.5
2022-10-17T08:11:44.151Z,25.3
2022-10-17T08:13:48.164Z,21.9
2022-10-17T08:15:55.294Z,18.7
2022-10-17T08:17:59.426Z,23.6
2022-10-17T08:20:03.577Z,27.1
2022-10-17T08:22:07.659Z,24.3
2022-10-17T08:24:11.794Z,22.9
2022-10-17T08:26:15.899Z,26.3
2022-10-17T08:30:27.182Z,38.3
2022-10-17T08:32:31.545Z,23.6
2022-10-17T08:34:35.379Z,16.7
2022-10-17T08:36:39.501Z,14.5
2022-10-17T08:38:43.886Z,17.7
2022-10-17T08:40:47.734Z,16.6
2022-10-17T08:42:51.855Z,16.9
2022-10-17T08:44:58.979Z,19.5
2022-10-17T08:47:03.089Z,22.1
2022-10-17T08:49:10.027Z,17
2022-10-17T08:51:31.478Z,17.5
2022-10-17T08:53:35.566Z,36.2
2022-10-17T08:55:42.802Z,23.3
2022-10-17T08:57:46.820Z,18.5
2022-10-17T08:59:50.921Z,22.4
2022-10-17T09:01:55.117Z,20.3
2022-10-17T09:03:59.191Z,28.3
2022-10-17T09:06:03.319Z,20.4
2022-10-17T09:08:07.440Z,21.1
2022-10-17T09:12:18.703Z,24.5
2022-10-17T09:14:22.805Z,21
2022-10-17T09:16:26.933Z,85.8
2022-10-17T09:18:31.070Z,19.6
2022-10-17T09:20:35.177Z,20.3
2022-10-17T09:22:39.314Z,21.4
2022-10-17T09:24:43.432Z,33.6
2022-10-17T09:26:50.551Z,17.5
2022-10-17T09:28:54.707Z,22
2022-10-17T09:30:58.809Z,18.6
2022-10-17T09:33:02.934Z,24.9
2022-10-17T09:35:07.042Z,40.7
2022-10-17T09:37:11.166Z,14.7
2022-10-17T09:39:15.308Z,20.9
2022-10-17T09:41:44.239Z,21.1
2022-10-17T09:43:26.541Z,22.2
2022-10-17T09:45:30.677Z,21.8
2022-10-17T09:48:38.350Z,18.9
2022-10-17T09:50:42.475Z,17.6
2022-10-17T09:53:28.144Z,12.7
2022-10-17T09:54:53.728Z,23.9
2022-10-17T09:56:57.844Z,16.6
2022-10-17T09:59:01.976Z,19
2022-10-17T10:01:06.150Z,16
2022-10-17T10:03:10.233Z,15.7
2022-10-17T10:05:14.332Z,21.9
2022-10-17T10:07:18.479Z,18
2022-10-17T10:11:29.730Z,16.7
2022-10-17T10:13:33.849Z,14.3
2022-10-17T10:15:37.995Z,12.1
2022-10-17T10:17:43.217Z,13.2
2022-10-17T10:19:46.213Z,19.3
2022-10-17T10:21:51.318Z,14.7
2022-10-17T10:23:57.461Z,17.9
2022-10-17T10:26:01.569Z,16.2
2022-10-17T10:28:05.707Z,14.4
2022-10-17T10:30:10.984Z,22.5
2022-10-17T10:32:13.927Z,23.1
2022-10-17T10:34:18.062Z,14.7
2022-10-17T10:36:22.163Z,20.6
2022-10-17T10:38:29.293Z,19.6
2022-10-17T10:40:33.484Z,16.7
2022-10-17T10:43:41.115Z,20.5
2022-10-17T10:45:48.969Z,14.1
2022-10-17T10:47:49.355Z,15
2022-10-17T10:54:04.730Z,11.8
2022-10-17T10:56:08.857Z,25.9
2022-10-17T10:58:12.983Z,17.6
2022-10-17T11:00:17.256Z,9.7
2022-10-17T11:02:21.217Z,8.4
2022-10-17T11:04:25.334Z,14.6
2022-10-17T11:06:32.480Z,12.8
2022-10-17T11:08:36.617Z,15.4
2022-10-17T11:10:40.717Z,12.5
2022-10-17T11:14:48.985Z,9
2022-10-17T11:16:53.078Z,9
2022-10-17T11:18:57.217Z,9.9
2022-10-17T11:21:04.387Z,11.4
2022-10-17T11:23:08.469Z,6.1
2022-10-17T11:25:12.585Z,8.9
2022-10-17T11:27:16.729Z,7.4
2022-10-17T11:29:20.835Z,12
2022-10-17T11:31:24.970Z,8.1
2022-10-17T11:33:29.101Z,8.9
2022-10-17T11:35:36.233Z,6.8
2022-10-17T11:37:40.962Z,6
2022-10-17T11:40:48.044Z,8.7
2022-10-17T11:42:52.168Z,7.1
2022-10-17T11:44:56.301Z,9.4
2022-10-17T11:47:00.403Z,9.2
2022-10-17T11:49:07.653Z,7.8
2022-10-17T11:55:19.897Z,10.2
2022-10-17T11:57:24.396Z,6.1
2022-10-17T11:59:28.141Z,8.9
2022-10-17T12:01:32.291Z,6.3
2022-10-17T12:09:51.797Z,9.3
2022-10-17T12:14:02.630Z,6
2022-10-17T12:18:11.308Z,5.9
2022-10-17T12:20:15.412Z,6.9
2022-10-17T12:22:19.560Z,8.4
2022-10-17T12:24:23.662Z,6.2
2022-10-17T12:26:27.813Z,5.9
2022-10-17T12:28:31.992Z,7.3
2022-10-17T12:30:36.051Z,8.9
2022-10-17T12:33:00.519Z,6.3
2022-10-17T12:34:47.310Z,4.1
2022-10-17T12:36:51.440Z,4.6
2022-10-17T12:39:15.805Z,4.2
2022-10-17T12:41:19.923Z,3.9
2022-10-17T12:43:24.055Z,5.9
2022-10-17T12:45:31.180Z,6.4
2022-10-17T12:47:35.331Z,8.1
2022-10-17T12:49:39.465Z,7
2022-10-17T12:51:43.570Z,3
2022-10-17T12:53:47.713Z,3.3
2022-10-17T12:55:51.823Z,4.3
2022-10-17T13:00:03.137Z,4.5
2022-10-17T13:02:07.293Z,5.9
2022-10-17T13:04:11.362Z,6.6
2022-10-17T13:06:15.487Z,4.2
2022-10-17T13:08:19.606Z,4.8
2022-10-17T13:10:23.773Z,5.4
2022-10-17T13:12:28.128Z,9.5
2022-10-17T13:14:34.964Z,6.5
2022-10-17T13:16:39.103Z,9.8
2022-10-17T13:18:43.237Z,9.6
2022-10-17T13:20:47.340Z,6.9
2022-10-17T13:22:51.493Z,11
2022-10-17T13:24:55.614Z,9.2
2022-10-17T13:26:59.715Z,6.4
2022-10-17T13:29:07.064Z,9.2
2022-10-17T13:31:10.990Z,10.1
2022-10-17T13:33:15.103Z,9.9
2022-10-17T13:34:18.670Z,6.1
2022-10-17T13:36:22.805Z,10
2022-10-17T13:38:26.930Z,8.4
2022-10-17T13:40:49.013Z,7.7
2022-10-17T13:42:39.763Z,14.4
2022-10-17T13:44:43.867Z,8.3
2022-10-17T13:46:47.968Z,8.5
2022-10-17T13:48:52.113Z,10.1
2022-10-17T13:53:00.348Z,10.9
2022-10-17T13:55:04.476Z,8.1
2022-10-17T13:57:11.606Z,11.7
2022-10-17T13:59:15.738Z,7.8
2022-10-17T14:01:19.921Z,10
2022-10-17T14:03:23.983Z,13
2022-10-17T14:05:28.102Z,24
2022-10-17T14:07:46.116Z,12.9
2022-10-17T14:09:36.371Z,8.2
2022-10-17T14:11:43.517Z,11.2
2022-10-17T14:13:47.613Z,14
2022-10-17T14:15:51.748Z,9
2022-10-17T14:17:55.882Z,14.3
2022-10-17T14:20:23.201Z,12
2022-10-17T14:22:04.124Z,9.8
2022-10-17T14:24:08.262Z,13.1
2022-10-17T14:26:15.409Z,12.6
2022-10-17T14:28:19.516Z,15.9
2022-10-17T14:30:38.787Z,16.6
2022-10-17T14:33:31.348Z,14.9
2022-10-17T14:37:39.597Z,14.4
2022-10-17T14:48:03.237Z,15.1
2022-10-17T14:52:14.915Z,11.6
2022-10-17T14:56:22.751Z,14.9
2022-10-17T15:00:31.016Z,14.8
2022-10-17T15:02:35.125Z,9
2022-10-17T15:04:39.257Z,9.9
2022-10-17T15:06:55.364Z,10.7
2022-10-17T15:10:54.648Z,13.2
2022-10-17T15:15:02.893Z,6.6
2022-10-17T15:17:06.997Z,18.4
2022-10-17T15:19:11.149Z,9.1
2022-10-17T15:21:26.475Z,7.9
2022-10-17T15:23:22.466Z,10.7
2022-10-17T15:25:26.528Z,10.4
2022-10-17T15:28:34.288Z,11.6
2022-10-17T15:30:38.360Z,7.6
2022-10-17T15:32:42.490Z,13
2022-10-17T15:34:46.621Z,15.9
2022-10-17T15:36:53.732Z,8.8
2022-10-17T15:38:57.857Z,14.2
2022-10-17T15:41:01.992Z,7.1
2022-10-17T15:43:06.135Z,17.9
2022-10-17T15:45:10.265Z,12.6
2022-10-17T15:47:14.380Z,8.1
2022-10-17T15:49:18.532Z,9.9
2022-10-17T15:51:25.654Z,12.8
2022-10-17T15:53:29.813Z,10.9
2022-10-17T15:55:33.936Z,11.9
2022-10-17T15:57:38.075Z,14
2022-10-17T16:05:57.587Z,9.3
2022-10-17T16:10:05.835Z,14
2022-10-17T16:12:10.012Z,17.7
2022-10-17T16:14:14.099Z,11.7
2022-10-17T16:16:18.200Z,12.7
2022-10-17T16:18:22.330Z,18.2
2022-10-17T16:20:29.467Z,11.5
2022-10-17T16:22:33.775Z,18.8
2022-10-17T16:24:37.731Z,13.8
2022-10-17T16:27:01.979Z,16.3
2022-10-17T16:29:06.155Z,16.4
2022-10-17T16:31:10.230Z,15
2022-10-17T16:33:17.369Z,18.7
2022-10-17T16:35:21.511Z,23.7
2022-10-17T16:37:25.587Z,16.9
2022-10-17T16:39:29.729Z,16.8
2022-10-17T16:41:33.832Z,13
2022-10-17T16:43:37.973Z,18.9
2022-10-17T16:45:42.099Z,19.4
2022-10-17T16:47:49.224Z,19.3
2022-10-17T16:49:53.340Z,11.6
2022-10-17T16:51:57.476Z,15.6
2022-10-17T16:54:01.588Z,170.9
2022-10-17T16:56:05.712Z,181.1
2022-10-17T16:58:09.825Z,195.9
2022-10-17T17:00:13.964Z,202.6
2022-10-17T17:02:21.464Z,228.8
2022-10-17T17:04:25.208Z,221.6
2022-10-17T17:06:29.351Z,219.6
2022-10-17T17:08:33.452Z,219.1
2022-10-17T17:10:37.589Z,223.7
2022-10-17T17:12:41.682Z,219.6
2022-10-17T17:14:45.826Z,215.6
2022-10-17T17:16:52.951Z,202.6
2022-10-17T17:18:57.061Z,195.3
2022-10-17T17:21:01.194Z,189
2022-10-17T17:22:04.745Z,186.2
2022-10-17T17:28:17.110Z,166.6
2022-10-17T17:30:24.225Z,161.5
2022-10-17T17:32:28.343Z,156.4
2022-10-17T17:34:32.470Z,154.5
2022-10-17T17:36:36.592Z,154.1
2022-10-17T17:38:40.712Z,157.3
2022-10-17T17:40:49.597Z,155.9
2022-10-17T17:42:48.973Z,155.2
2022-10-17T17:44:56.075Z,158.9
2022-10-17T17:47:00.168Z,160.8
2022-10-17T17:49:04.283Z,163.5
2022-10-17T17:51:08.409Z,165.1
2022-10-17T17:53:12.536Z,171.5
2022-10-17T17:55:16.648Z,174.8
2022-10-17T17:57:20.766Z,175.5
2022-10-17T17:59:27.895Z,185.3
2022-10-17T18:01:32.081Z,187.1
2022-10-17T18:03:36.135Z,191.6
2022-10-17T18:05:40.254Z,198.4
2022-10-17T18:07:44.362Z,204.7
2022-10-17T18:09:48.468Z,210.9
2022-10-17T18:11:52.623Z,216.2
2022-10-17T18:14:00.550Z,234.2
2022-10-17T18:16:04.660Z,240.8
2022-10-17T18:18:08.789Z,252.6
2022-10-17T18:19:12.353Z,254.8
2022-10-17T18:21:16.449Z,261.6
2022-10-17T18:23:20.595Z,260.2
2022-10-17T18:27:31.811Z,277.2
2022-10-17T18:29:35.922Z,281.4
2022-10-17T18:35:48.278Z,298.8
2022-10-17T18:39:56.500Z,307.5
2022-10-17T18:44:07.739Z,317.8
2022-10-17T18:48:15.970Z,329.2
2022-10-17T18:54:28.283Z,329.2
2022-10-17T18:58:39.520Z,345.1
2022-10-17T19:00:43.642Z,347.8
2022-10-17T19:02:47.762Z,359.9
2022-10-17T19:04:51.927Z,361.2
2022-10-17T19:06:55.965Z,366.8
2022-10-17T19:09:00.140Z,371.8
2022-10-17T19:11:07.206Z,376.6
2022-10-17T19:13:11.346Z,382.4
2022-10-17T19:16:18.990Z,385.3
2022-10-17T19:18:23.122Z,379.2
2022-10-17T19:20:27.222Z,373.8
2022-10-17T19:24:38.468Z,390.1
2022-10-17T19:26:42.584Z,381.4
2022-10-17T19:28:46.704Z,384.3
2022-10-17T19:30:50.777Z,388.4
2022-10-17T19:32:54.905Z,385.7
2022-10-17T19:34:58.997Z,392.7
2022-10-17T19:37:03.123Z,395.5
2022-10-17T19:39:11.797Z,401.4
2022-10-17T19:41:15.862Z,396
2022-10-17T19:43:19.958Z,401.6
2022-10-17T19:45:24.084Z,404.9
2022-10-17T19:47:28.172Z,409.3
2022-10-17T19:51:36.400Z,415.3
2022-10-17T19:53:43.508Z,413.9
2022-10-17T19:55:47.624Z,412.9
2022-10-17T19:57:51.736Z,414.9
2022-10-17T19:59:56.213Z,407.2
2022-10-17T20:01:59.996Z,410.6
2022-10-17T20:04:04.071Z,408.7
2022-10-17T20:06:08.164Z,412
2022-10-17T20:08:15.470Z,411.8
2022-10-17T20:10:19.435Z,411
2022-10-17T20:12:23.525Z,407.5
2022-10-17T20:14:47.351Z,418.1
2022-10-17T20:18:55.582Z,423.6
2022-10-17T20:21:02.771Z,426.1
2022-10-17T20:23:06.817Z,426.3
2022-10-17T20:25:10.951Z,418.5
2022-10-17T20:27:15.045Z,427.9
2022-10-17T20:29:19.152Z,420.8
2022-10-17T20:31:23.266Z,420.3
2022-10-17T20:33:31.835Z,424.6
2022-10-17T20:35:34.555Z,432.1
2022-10-17T20:37:41.630Z,437.1
2022-10-17T20:39:42.746Z,429.9
2022-10-17T20:41:46.851Z,435
2022-10-17T20:43:50.968Z,441.3
2022-10-17T20:46:03.529Z,438
2022-10-17T20:47:59.328Z,442.7
2022-10-17T20:50:06.330Z,446.8
2022-10-17T20:52:10.468Z,442.3
2022-10-17T20:54:14.610Z,441.6
2022-10-17T20:56:18.683Z,443.1
2022-10-17T20:58:22.796Z,441.6
2022-10-17T21:00:26.911Z,445
2022-10-17T21:02:31.033Z,440.5
2022-10-17T21:04:46.392Z,448.5
2022-10-17T21:06:42.294Z,434.7
2022-10-17T21:08:46.380Z,437
2022-10-17T21:11:54.126Z,436.6
2022-10-17T21:13:58.189Z,432.4
2022-10-17T21:16:02.318Z,421.7
2022-10-17T21:18:09.456Z,425.3
2022-10-17T21:20:13.564Z,422.5
2022-10-17T21:22:17.687Z,415.4
2022-10-17T21:24:21.788Z,414.7
2022-10-17T21:26:25.909Z,413.5
2022-10-17T21:28:30.136Z,411.6
2022-10-17T21:30:34.153Z,405.3
2022-10-17T21:32:51.484Z,405.5
2022-10-17T21:34:45.384Z,409.5
2022-10-17T21:36:49.518Z,403.9
2022-10-17T21:38:53.645Z,400.4
2022-10-17T21:40:57.737Z,398.8
2022-10-17T21:43:01.853Z,397.9
2022-10-17T21:45:15.389Z,397.3
2022-10-17T21:47:13.127Z,390.5
2022-10-17T21:49:17.249Z,383.1
2022-10-17T21:51:21.366Z,391.5
2022-10-17T21:53:25.481Z,382.4
2022-10-17T21:55:29.608Z,384.7
2022-10-17T21:57:33.709Z,400.2
2022-10-17T21:59:37.822Z,391.5
2022-10-17T22:01:45.022Z,385
2022-10-17T22:06:56.756Z,379.5
2022-10-17T22:09:00.844Z,377.3
2022-10-17T22:11:04.957Z,374.8
2022-10-17T22:13:09.056Z,369.6
2022-10-17T22:15:16.214Z,381.2
2022-10-17T22:17:20.300Z,379.1
2022-10-17T22:19:24.420Z,385.2
2022-10-17T22:21:28.521Z,379.8
2022-10-17T22:23:32.651Z,374.9
2022-10-17T22:25:36.759Z,372.7
2022-10-17T22:27:40.865Z,373.1
2022-10-17T22:29:47.978Z,376.9
2022-10-17T22:31:52.084Z,377.9
2022-10-17T22:33:56.230Z,377.4
2022-10-17T22:36:00.345Z,385.7
2022-10-17T22:38:04.463Z,377.2
2022-10-17T22:40:08.581Z,372.4
2022-10-17T22:42:12.705Z,378.3
2022-10-17T22:50:32.181Z,386.7
2022-10-17T22:56:44.471Z,389.7
2022-10-17T22:58:51.577Z,397.9
2022-10-17T23:00:55.699Z,393.8
2022-10-17T23:02:59.816Z,393.6
2022-10-17T23:04:03.366Z,393.3
2022-10-17T23:06:07.466Z,390.1
2022-10-17T23:08:11.574Z,398.7
2022-10-17T23:10:15.695Z,398.6
2022-10-17T23:12:22.832Z,392
2022-10-17T23:14:26.908Z,379.3
2022-10-17T23:16:31.034Z,373.7
2022-10-17T23:18:35.150Z,376.9
2022-10-17T23:20:39.254Z,378
2022-10-17T23:22:43.361Z,372.6
2022-10-17T23:24:47.453Z,364.1
2022-10-17T23:26:54.579Z,372.6
2022-10-17T23:28:58.731Z,368.5
2022-10-17T23:31:02.819Z,366.3
2022-10-17T23:35:11.031Z,361.7
2022-10-17T23:37:15.147Z,369.6
2022-10-17T23:39:22.896Z,367
2022-10-17T23:41:26.351Z,365.9
2022-10-17T23:45:36.867Z,352.6
2022-10-17T23:47:38.708Z,346.9
2022-10-17T23:49:42.792Z,347
2022-10-17T23:51:46.917Z,338.3
2022-10-17T23:53:51.034Z,330.2
2022-10-17T23:55:58.146Z,337.7
2022-10-17T23:58:02.274Z,337.4
